Time;durP1;ratioP1;P1;durP2;ratioP2;P2;SDS_P1;SDS_P2;PMS_P1;PMS_P2;Temp;Humidity;BMP_temperature;BMP_pressure;BME280_temperature;BME280_humidity;BME280_pressure;Samples;Min_cycle;Max_cycle;Signal;HPM_P1;HPM_P2
2020/12/09 00:02:38;0.00;0.00;0.62;0.00;0.00;0.62;14.90;6.13;;;21.30;29.10;;;;;;2265539;61;20360;-66
2020/12/09 00:05:24;0.00;0.00;0.62;0.00;0.00;0.62;12.90;9.90;;;21.30;29.10;;;;;;2265356;61;20795;-66
2020/12/09 00:08:10;0.00;0.00;0.62;0.00;0.00;0.62;17.63;8.97;;;21.40;29.40;;;;;;2265663;61;20370;-65
2020/12/09 00:10:55;0.00;0.00;0.62;0.00;0.00;0.62;9.97;7.67;;;21.30;28.70;;;;;;2265743;61;20365;-64
2020/12/09 00:13:39;0.00;0.00;0.62;0.00;0.00;0.62;9.97;7.67;;;21.30;28.50;;;;;;2265745;61;20808;-66
2020/12/09 00:16:24;0.00;0.00;0.62;0.00;0.00;0.62;9.80;8.20;;;21.30;28.50;;;;;;2265365;61;20362;-66
2020/12/09 00:19:09;0.00;0.00;0.62;0.00;0.00;0.62;11.60;8.33;;;21.30;28.50;;;;;;2265687;61;20381;-66
2020/12/09 00:21:53;0.00;0.00;0.62;0.00;0.00;0.62;11.20;9.13;;;21.20;29.00;;;;;;2265736;61;20408;-65
2020/12/09 00:24:38;0.00;0.00;0.62;0.00;0.00;0.62;9.87;8.87;;;21.20;28.50;;;;;;2265353;61;20361;-65
2020/12/09 00:27:23;0.00;0.00;0.62;0.00;0.00;0.62;12.10;9.70;;;21.20;28.50;;;;;;2265495;61;20617;-66
2020/12/09 00:30:08;0.00;0.00;0.62;0.00;0.00;0.62;12.03;10.20;;;21.20;28.50;;;;;;2265722;61;20389;-64
2020/12/09 00:32:53;0.00;0.00;0.62;0.00;0.00;0.62;14.40;11.33;;;21.20;28.50;;;;;;2265512;61;20602;-65
2020/12/09 00:35:39;0.00;0.00;0.62;0.00;0.00;0.62;15.57;12.23;;;21.20;28.50;;;;;;2265716;61;20362;-65
2020/12/09 00:38:24;0.00;0.00;0.62;0.00;0.00;0.62;14.47;11.03;;;21.20;28.40;;;;;;2265381;61;20428;-66
2020/12/09 00:41:13;0.00;0.00;0.62;0.00;0.00;0.62;13.90;11.30;;;21.20;28.40;;;;;;2265736;61;20365;-65
2020/12/09 00:43:58;0.00;0.00;0.62;0.00;0.00;0.62;15.20;11.97;;;21.10;28.30;;;;;;2265793;61;20444;-65
2020/12/09 00:46:43;0.00;0.00;0.62;0.00;0.00;0.62;14.40;11.80;;;21.10;28.30;;;;;;2264844;61;20420;-65
2020/12/09 00:49:27;0.00;0.00;0.62;0.00;0.00;0.62;14.30;12.37;;;21.10;28.30;;;;;;2265679;61;20408;-64
2020/12/09 00:52:12;0.00;0.00;0.62;0.00;0.00;0.62;14.17;11.30;;;21.10;28.30;;;;;;2265631;61;20360;-65
2020/12/09 00:54:57;0.00;0.00;0.62;0.00;0.00;0.62;17.10;13.20;;;21.10;28.30;;;;;;2265061;61;20404;-65
2020/12/09 00:57:43;0.00;0.00;0.62;0.00;0.00;0.62;17.77;13.70;;;21.10;28.30;;;;;;2265514;61;20753;-65
2020/12/09 01:00:29;0.00;0.00;0.62;0.00;0.00;0.62;15.80;13.10;;;21.00;28.20;;;;;;2265016;61;20729;-65
2020/12/09 01:03:29;0.00;0.00;0.62;0.00;0.00;0.62;15.60;13.30;;;21.00;28.20;;;;;;2262459;61;20362;-65
2020/12/09 01:06:14;0.00;0.00;0.62;0.00;0.00;0.62;15.00;13.33;;;21.00;28.20;;;;;;2265383;61;20881;-66
2020/12/09 01:08:59;0.00;0.00;0.62;0.00;0.00;0.62;17.50;13.70;;;20.90;28.20;;;;;;2265352;61;20464;-65
2020/12/09 01:11:44;0.00;0.00;0.62;0.00;0.00;0.62;15.03;12.50;;;20.90;28.20;;;;;;2265664;61;20353;-64
2020/12/09 01:14:30;0.00;0.00;0.62;0.00;0.00;0.62;16.67;13.20;;;20.90;28.20;;;;;;2265609;61;20650;-65
2020/12/09 01:17:16;0.00;0.00;0.62;0.00;0.00;0.62;18.40;13.57;;;20.90;28.20;;;;;;2265248;61;20365;-64
2020/12/09 01:20:01;0.00;0.00;0.62;0.00;0.00;0.62;18.60;13.23;;;20.90;28.20;;;;;;2265595;61;20741;-65
2020/12/09 01:22:46;0.00;0.00;0.62;0.00;0.00;0.62;17.60;13.53;;;20.90;28.70;;;;;;2265437;61;20357;-66
2020/12/09 01:25:31;0.00;0.00;0.62;0.00;0.00;0.62;17.33;12.33;;;20.80;28.10;;;;;;2265620;61;20425;-66
2020/12/09 01:28:16;0.00;0.00;0.62;0.00;0.00;0.62;16.90;13.83;;;20.80;28.10;;;;;;2265438;61;20446;-66
2020/12/09 01:31:01;0.00;0.00;0.62;0.00;0.00;0.62;19.67;15.07;;;20.80;28.10;;;;;;2265332;61;20365;-65
2020/12/09 01:33:47;0.00;0.00;0.62;0.00;0.00;0.62;16.00;13.80;;;20.80;28.00;;;;;;2265573;61;20431;-65
2020/12/09 01:36:32;0.00;0.00;0.62;0.00;0.00;0.62;17.00;14.07;;;20.70;28.50;;;;;;2266182;61;20577;-65
2020/12/09 01:39:17;0.00;0.00;0.62;0.00;0.00;0.62;14.80;13.30;;;20.70;28.00;;;;;;2266004;61;20385;-65
2020/12/09 01:42:03;0.00;0.00;0.62;0.00;0.00;0.62;20.13;14.60;;;20.70;28.00;;;;;;2266223;61;20624;-64
2020/12/09 01:44:48;0.00;0.00;0.62;0.00;0.00;0.62;15.43;13.60;;;20.70;28.00;;;;;;2266014;61;20362;-65
2020/12/09 01:47:33;0.00;0.00;0.62;0.00;0.00;0.62;17.53;13.30;;;20.70;28.00;;;;;;2265908;61;20393;-65
2020/12/09 01:50:18;0.00;0.00;0.62;0.00;0.00;0.62;16.60;14.17;;;20.70;28.00;;;;;;2266230;61;20366;-66
2020/12/09 01:53:04;0.00;0.00;0.62;0.00;0.00;0.62;17.13;13.33;;;20.70;28.00;;;;;;2265998;61;20623;-64
2020/12/09 01:55:48;0.00;0.00;0.62;0.00;0.00;0.62;17.03;14.67;;;20.70;28.10;;;;;;2266167;61;20552;-66
2020/12/09 01:58:33;0.00;0.00;0.62;0.00;0.00;0.62;17.10;13.50;;;20.60;28.00;;;;;;2266220;61;20614;-65
2020/12/09 02:01:19;0.00;0.00;0.62;0.00;0.00;0.62;16.40;14.13;;;20.60;28.00;;;;;;2265930;61;20365;-66
2020/12/09 02:04:04;0.00;0.00;0.62;0.00;0.00;0.62;16.30;14.33;;;20.60;28.00;;;;;;2266100;61;20604;-63
2020/12/09 02:06:52;0.00;0.00;0.62;0.00;0.00;0.62;17.50;14.87;;;20.60;28.50;;;;;;2265717;61;20401;-63
2020/12/09 02:09:36;0.00;0.00;0.62;0.00;0.00;0.62;16.30;13.93;;;20.60;28.00;;;;;;2262941;61;20365;-65
2020/12/09 02:12:21;0.00;0.00;0.62;0.00;0.00;0.62;17.30;13.50;;;20.50;27.90;;;;;;2266146;61;20361;-64
2020/12/09 02:15:06;0.00;0.00;0.62;0.00;0.00;0.62;15.53;12.37;;;20.50;27.90;;;;;;2265911;61;20585;-65
2020/12/09 02:17:51;0.00;0.00;0.62;0.00;0.00;0.62;16.47;13.47;;;20.50;27.90;;;;;;2265997;61;20377;-66
2020/12/09 02:20:37;0.00;0.00;0.62;0.00;0.00;0.62;14.43;12.60;;;20.50;28.00;;;;;;2266134;61;20357;-64
2020/12/09 02:23:22;0.00;0.00;0.62;0.00;0.00;0.62;21.87;14.83;;;20.50;28.00;;;;;;2265492;61;20581;-63
2020/12/09 02:26:08;0.00;0.00;0.62;0.00;0.00;0.62;17.50;14.57;;;20.50;27.90;;;;;;2265833;61;20384;-65
2020/12/09 02:28:52;0.00;0.00;0.62;0.00;0.00;0.62;17.90;13.33;;;20.40;27.90;;;;;;2266121;61;20381;-65
2020/12/09 02:31:37;0.00;0.00;0.62;0.00;0.00;0.62;20.40;15.60;;;20.40;27.90;;;;;;2266165;61;20389;-65
2020/12/09 02:34:22;0.00;0.00;0.62;0.00;0.00;0.62;20.20;14.87;;;20.40;27.90;;;;;;2266125;61;20369;-67
2020/12/09 02:37:07;0.00;0.00;0.62;0.00;0.00;0.62;17.60;14.60;;;20.40;27.90;;;;;;2265650;61;20413;-64
2020/12/09 02:39:52;0.00;0.00;0.62;0.00;0.00;0.62;18.13;14.00;;;20.40;27.90;;;;;;2266151;61;20400;-64
2020/12/09 02:42:37;0.00;0.00;0.62;0.00;0.00;0.62;20.30;15.70;;;20.30;27.90;;;;;;2266054;61;20477;-65
2020/12/09 02:45:23;0.00;0.00;0.62;0.00;0.00;0.62;16.77;13.80;;;20.40;28.00;;;;;;2265690;61;20361;-65
2020/12/09 02:48:08;0.00;0.00;0.62;0.00;0.00;0.62;17.57;14.07;;;20.30;27.90;;;;;;2265815;61;20440;-65
2020/12/09 02:50:55;0.00;0.00;0.62;0.00;0.00;0.62;17.00;14.30;;;20.30;27.90;;;;;;2266048;61;20593;-65
2020/12/09 02:53:40;0.00;0.00;0.62;0.00;0.00;0.62;18.33;13.73;;;20.30;27.90;;;;;;2265988;61;20365;-65
2020/12/09 02:56:25;0.00;0.00;0.62;0.00;0.00;0.62;18.50;14.20;;;20.30;27.90;;;;;;2265905;61;20353;-65
2020/12/09 02:59:10;0.00;0.00;0.62;0.00;0.00;0.62;18.47;14.33;;;20.30;27.90;;;;;;2265680;61;20389;-64
2020/12/09 03:01:55;0.00;0.00;0.62;0.00;0.00;0.62;16.73;12.80;;;20.30;27.90;;;;;;2265992;61;20377;-66
2020/12/09 03:04:40;0.00;0.00;0.62;0.00;0.00;0.62;18.30;13.87;;;20.30;27.80;;;;;;2265963;61;20393;-64
2020/12/09 03:07:24;0.00;0.00;0.62;0.00;0.00;0.62;19.30;15.77;;;20.30;27.80;;;;;;2265445;61;20397;-66
2020/12/09 03:10:08;0.00;0.00;0.62;0.00;0.00;0.62;19.27;15.57;;;20.30;27.80;;;;;;2266005;61;20365;-65
2020/12/09 03:12:54;0.00;0.00;0.62;0.00;0.00;0.62;19.33;15.40;;;20.20;27.80;;;;;;2265924;61;20604;-65
2020/12/09 03:15:38;0.00;0.00;0.62;0.00;0.00;0.62;18.60;14.47;;;20.20;27.80;;;;;;2265832;61;20369;-65
2020/12/09 03:18:23;0.00;0.00;0.62;0.00;0.00;0.62;18.60;13.50;;;20.20;27.70;;;;;;2265867;61;20627;-65
2020/12/09 03:21:08;0.00;0.00;0.62;0.00;0.00;0.62;19.20;13.90;;;20.20;27.80;;;;;;2265639;61;20381;-65
2020/12/09 03:23:52;0.00;0.00;0.62;0.00;0.00;0.62;16.83;13.50;;;20.20;27.80;;;;;;2265961;61;20760;-65
2020/12/09 03:26:37;0.00;0.00;0.62;0.00;0.00;0.62;20.43;15.13;;;20.20;27.80;;;;;;2265678;61;20464;-65
2020/12/09 03:29:22;0.00;0.00;0.62;0.00;0.00;0.62;19.10;14.53;;;20.20;27.80;;;;;;2265619;61;20385;-66
2020/12/09 03:32:07;0.00;0.00;0.62;0.00;0.00;0.62;18.60;14.27;;;20.20;27.70;;;;;;2265925;61;20456;-64
2020/12/09 03:34:52;0.00;0.00;0.62;0.00;0.00;0.62;19.00;15.07;;;20.20;28.30;;;;;;2266052;61;20377;-65
2020/12/09 03:37:36;0.00;0.00;0.62;0.00;0.00;0.62;16.80;13.47;;;20.10;27.70;;;;;;2265563;61;20512;-65
2020/12/09 03:40:21;0.00;0.00;0.62;0.00;0.00;0.62;19.60;16.00;;;20.10;27.70;;;;;;2265904;61;20384;-65
2020/12/09 03:43:05;0.00;0.00;0.62;0.00;0.00;0.62;20.53;15.40;;;20.10;27.60;;;;;;2265558;61;20595;-66
2020/12/09 03:45:50;0.00;0.00;0.62;0.00;0.00;0.62;26.20;16.77;;;20.10;27.60;;;;;;2265827;61;20396;-66
2020/12/09 03:48:35;0.00;0.00;0.62;0.00;0.00;0.62;19.17;14.30;;;20.10;27.60;;;;;;2265810;61;20370;-64
2020/12/09 03:51:19;0.00;0.00;0.62;0.00;0.00;0.62;19.97;14.23;;;20.10;27.60;;;;;;2265667;61;20627;-65
2020/12/09 03:54:04;0.00;0.00;0.62;0.00;0.00;0.62;21.77;15.67;;;20.10;27.60;;;;;;2266013;61;20365;-64
2020/12/09 03:56:48;0.00;0.00;0.62;0.00;0.00;0.62;22.30;15.00;;;20.10;27.60;;;;;;2265850;61;20392;-64
2020/12/09 03:59:33;0.00;0.00;0.62;0.00;0.00;0.62;22.87;16.53;;;20.10;27.60;;;;;;2262574;61;20420;-65
2020/12/09 04:02:18;0.00;0.00;0.62;0.00;0.00;0.62;18.97;15.23;;;20.10;27.60;;;;;;2265965;61;20749;-65
2020/12/09 04:05:04;0.00;0.00;0.62;0.00;0.00;0.62;21.93;14.87;;;20.10;27.60;;;;;;2265880;61;20792;-63
2020/12/09 04:07:48;0.00;0.00;0.62;0.00;0.00;0.62;23.53;16.20;;;20.00;27.50;;;;;;2265695;61;20647;-65
2020/12/09 04:10:33;0.00;0.00;0.62;0.00;0.00;0.62;21.77;15.50;;;20.10;27.70;;;;;;2265918;61;20358;-66
2020/12/09 04:13:17;0.00;0.00;0.62;0.00;0.00;0.62;21.90;16.20;;;20.00;27.60;;;;;;2265681;61;20586;-66
2020/12/09 04:16:02;0.00;0.00;0.62;0.00;0.00;0.62;19.20;14.60;;;20.00;27.60;;;;;;2262787;61;20361;-64
2020/12/09 04:18:47;0.00;0.00;0.62;0.00;0.00;0.62;18.13;14.37;;;20.00;27.60;;;;;;2265943;61;20380;-66
2020/12/09 04:21:32;0.00;0.00;0.62;0.00;0.00;0.62;21.23;16.30;;;20.00;27.60;;;;;;2265616;61;20728;-63
2020/12/09 04:24:16;0.00;0.00;0.62;0.00;0.00;0.62;21.77;16.07;;;20.00;27.60;;;;;;2265906;61;20469;-63
2020/12/09 04:27:01;0.00;0.00;0.62;0.00;0.00;0.62;21.90;17.03;;;20.00;27.60;;;;;;2265602;61;20385;-64
2020/12/09 04:29:46;0.00;0.00;0.62;0.00;0.00;0.62;26.00;17.50;;;20.00;27.60;;;;;;2265762;61;20353;-65
2020/12/09 04:32:30;0.00;0.00;0.62;0.00;0.00;0.62;23.40;17.47;;;19.90;27.50;;;;;;2265865;61;20400;-64
2020/12/09 04:35:16;0.00;0.00;0.62;0.00;0.00;0.62;23.83;18.43;;;19.90;27.50;;;;;;2265656;61;20413;-64
2020/12/09 04:38:00;0.00;0.00;0.62;0.00;0.00;0.62;24.70;17.57;;;19.90;27.60;;;;;;2265741;61;20384;-65
2020/12/09 04:40:45;0.00;0.00;0.62;0.00;0.00;0.62;24.43;16.40;;;19.90;27.60;;;;;;2265866;61;20357;-65
2020/12/09 04:43:31;0.00;0.00;0.62;0.00;0.00;0.62;22.60;16.20;;;19.90;27.60;;;;;;2265606;61;20361;-63
2020/12/09 04:46:16;0.00;0.00;0.62;0.00;0.00;0.62;22.67;17.63;;;19.90;28.10;;;;;;2265602;61;20385;-64
2020/12/09 04:49:07;0.00;0.00;0.62;0.00;0.00;0.62;21.87;16.60;;;19.90;27.60;;;;;;2265827;61;20452;-66
2020/12/09 04:52:25;0.00;0.00;0.62;0.00;0.00;0.62;23.30;17.23;;;19.90;27.60;;;;;;2262445;61;20409;-66
2020/12/09 04:55:12;0.00;0.00;0.62;0.00;0.00;0.62;22.30;15.80;;;19.90;28.20;;;;;;2265828;61;20385;-65
2020/12/09 04:58:15;0.00;0.00;0.62;0.00;0.00;0.62;22.60;17.60;;;19.90;27.60;;;;;;2265457;61;20389;-64
2020/12/09 05:01:05;0.00;0.00;0.62;0.00;0.00;0.62;23.60;16.30;;;19.90;27.60;;;;;;2265782;61;20388;-64
2020/12/09 05:03:51;0.00;0.00;0.62;0.00;0.00;0.62;22.00;16.60;;;19.80;27.60;;;;;;2265773;61;20432;-65
2020/12/09 05:06:36;0.00;0.00;0.62;0.00;0.00;0.62;22.25;17.88;;;19.80;27.60;;;;;;2265077;61;20594;-64
2020/12/09 05:09:26;0.00;0.00;0.62;0.00;0.00;0.62;21.60;17.17;;;19.80;28.20;;;;;;2266108;61;20649;-66
2020/12/09 05:12:14;0.00;0.00;0.62;0.00;0.00;0.62;25.80;18.43;;;19.90;27.60;;;;;;2266284;61;20362;-64
2020/12/09 05:15:01;0.00;0.00;0.62;0.00;0.00;0.62;23.77;16.83;;;19.80;27.50;;;;;;2266491;61;20438;-65
2020/12/09 05:18:02;0.00;0.00;0.62;0.00;0.00;0.62;22.83;16.70;;;19.90;27.60;;;;;;2266317;61;20635;-66
2020/12/09 05:20:47;0.00;0.00;0.62;0.00;0.00;0.62;22.50;16.70;;;19.80;27.50;;;;;;2266231;61;20733;-64
2020/12/09 05:23:34;0.00;0.00;0.62;0.00;0.00;0.62;21.83;17.10;;;19.80;28.00;;;;;;2266433;61;20484;-66
2020/12/09 05:26:23;0.00;0.00;0.62;0.00;0.00;0.62;27.93;17.77;;;19.80;27.50;;;;;;2266172;61;20361;-66
2020/12/09 05:29:10;0.00;0.00;0.62;0.00;0.00;0.62;22.70;17.17;;;19.80;27.50;;;;;;2266380;61;20479;-64
2020/12/09 05:31:59;0.00;0.00;0.62;0.00;0.00;0.62;20.77;16.13;;;19.80;27.50;;;;;;2266443;61;20717;-65
2020/12/09 05:34:44;0.00;0.00;0.62;0.00;0.00;0.62;23.10;16.60;;;19.80;27.50;;;;;;2266232;61;20342;-65
2020/12/09 05:37:29;0.00;0.00;0.62;0.00;0.00;0.62;19.53;16.00;;;19.80;27.50;;;;;;2266254;61;20423;-65
2020/12/09 05:40:28;0.00;0.00;0.62;0.00;0.00;0.62;22.40;17.50;;;19.80;27.60;;;;;;2266461;61;20837;-65
2020/12/09 05:43:16;0.00;0.00;0.62;0.00;0.00;0.62;25.27;18.07;;;19.80;27.60;;;;;;2266152;61;20527;-65
2020/12/09 05:46:09;0.00;0.00;0.62;0.00;0.00;0.62;20.70;16.30;;;19.70;27.50;;;;;;2266375;61;20370;-65
2020/12/09 05:48:53;0.00;0.00;0.62;0.00;0.00;0.62;22.00;16.00;;;19.70;27.50;;;;;;2266160;61;20409;-66
2020/12/09 05:51:38;0.00;0.00;0.62;0.00;0.00;0.62;22.33;17.70;;;19.70;27.50;;;;;;2266327;61;20469;-66
2020/12/09 05:54:26;0.00;0.00;0.62;0.00;0.00;0.62;21.30;17.13;;;19.70;27.60;;;;;;2265520;61;20390;-66
2020/12/09 05:57:12;0.00;0.00;0.62;0.00;0.00;0.62;29.50;18.17;;;19.70;27.50;;;;;;2265650;61;20476;-66
2020/12/09 05:59:59;0.00;0.00;0.62;0.00;0.00;0.62;22.50;16.73;;;19.70;27.50;;;;;;2266211;61;20576;-66
2020/12/09 06:02:43;0.00;0.00;0.62;0.00;0.00;0.62;22.63;17.40;;;19.70;27.50;;;;;;2266230;61;20369;-65
2020/12/09 06:05:28;0.00;0.00;0.62;0.00;0.00;0.62;23.17;17.30;;;19.70;27.50;;;;;;2265486;61;20677;-65
2020/12/09 06:08:37;0.00;0.00;0.62;0.00;0.00;0.62;21.10;17.20;;;19.70;27.50;;;;;;2265992;61;20436;-64
2020/12/09 06:11:24;0.00;0.00;0.62;0.00;0.00;0.62;23.77;15.83;;;19.70;27.50;;;;;;2265921;61;20362;-65
2020/12/09 06:14:16;0.00;0.00;0.62;0.00;0.00;0.62;24.63;18.03;;;19.70;27.50;;;;;;2266149;61;20440;-64
2020/12/09 06:17:02;0.00;0.00;0.62;0.00;0.00;0.62;28.67;21.30;;;19.70;27.50;;;;;;2266053;61;20361;-65
2020/12/09 06:19:48;0.00;0.00;0.62;0.00;0.00;0.62;25.40;18.50;;;19.70;28.00;;;;;;2265839;61;20366;-64
2020/12/09 06:22:33;0.00;0.00;0.62;0.00;0.00;0.62;21.97;17.60;;;19.70;27.40;;;;;;2265932;61;20385;-63
2020/12/09 06:25:20;0.00;0.00;0.62;0.00;0.00;0.62;25.80;19.90;;;19.60;27.40;;;;;;2262904;61;20385;-65
2020/12/09 06:28:09;0.00;0.00;0.62;0.00;0.00;0.62;25.20;19.23;;;19.60;27.40;;;;;;2265697;61;20389;-63
2020/12/09 06:30:56;0.00;0.00;0.62;0.00;0.00;0.62;23.83;17.27;;;19.60;27.40;;;;;;2266089;61;20658;-64
2020/12/09 06:33:43;0.00;0.00;0.62;0.00;0.00;0.62;23.70;19.30;;;19.60;27.40;;;;;;2265768;61;20361;-64
2020/12/09 06:36:29;0.00;0.00;0.62;0.00;0.00;0.62;24.97;18.40;;;19.60;27.40;;;;;;2266016;61;20381;-65
2020/12/09 06:39:17;0.00;0.00;0.62;0.00;0.00;0.62;26.33;18.40;;;19.60;27.40;;;;;;2266009;61;20617;-64
2020/12/09 06:42:09;0.00;0.00;0.62;0.00;0.00;0.62;25.17;19.20;;;19.60;27.40;;;;;;2265807;61;20776;-63
2020/12/09 06:44:56;0.00;0.00;0.62;0.00;0.00;0.62;23.63;19.20;;;19.60;28.00;;;;;;2266102;61;20380;-64
2020/12/09 06:47:41;0.00;0.00;0.62;0.00;0.00;0.62;23.40;17.37;;;19.50;27.40;;;;;;2265691;61;20424;-65
2020/12/09 06:50:30;0.00;0.00;0.62;0.00;0.00;0.62;24.67;18.30;;;19.50;27.40;;;;;;2266069;61;20365;-64
2020/12/09 06:53:17;0.00;0.00;0.62;0.00;0.00;0.62;26.70;19.70;;;19.60;27.50;;;;;;2266020;61;20623;-64
2020/12/09 06:56:17;0.00;0.00;0.62;0.00;0.00;0.62;23.53;18.10;;;19.60;27.50;;;;;;2265769;61;20385;-65
2020/12/09 06:59:26;0.00;0.00;0.62;0.00;0.00;0.62;25.00;18.87;;;19.50;27.40;;;;;;2265619;61;20496;-65
2020/12/09 07:02:23;0.00;0.00;0.62;0.00;0.00;0.62;29.63;19.70;;;19.50;27.40;;;;;;2265900;61;20428;-70
2020/12/09 07:05:10;0.00;0.00;0.62;0.00;0.00;0.62;29.93;20.90;;;19.50;27.40;;;;;;2265887;61;20366;-66
2020/12/09 07:08:05;0.00;0.00;0.62;0.00;0.00;0.62;26.00;20.57;;;19.50;27.50;;;;;;2265806;61;20432;-62
2020/12/09 07:10:50;0.00;0.00;0.62;0.00;0.00;0.62;22.77;18.10;;;19.50;27.50;;;;;;2265986;61;20369;-62
2020/12/09 07:13:34;0.00;0.00;0.62;0.00;0.00;0.62;26.20;20.20;;;19.50;28.00;;;;;;2265575;61;20434;-63
2020/12/09 07:16:27;0.00;0.00;0.62;0.00;0.00;0.62;19.63;16.43;;;19.50;27.50;;;;;;2265892;61;20366;-62
2020/12/09 07:19:14;0.00;0.00;0.62;0.00;0.00;0.62;21.33;17.63;;;19.50;27.50;;;;;;2265808;61;20780;-64
2020/12/09 07:22:03;0.00;0.00;0.62;0.00;0.00;0.62;26.70;19.13;;;19.50;27.50;;;;;;2265900;61;20376;-65
2020/12/09 07:24:48;0.00;0.00;0.62;0.00;0.00;0.62;24.70;19.00;;;19.50;27.50;;;;;;2265952;61;20431;-63
2020/12/09 07:27:35;0.00;0.00;0.62;0.00;0.00;0.62;25.03;18.90;;;19.50;27.50;;;;;;2265689;61;20611;-65
2020/12/09 07:30:21;0.00;0.00;0.62;0.00;0.00;0.62;26.20;18.10;;;19.50;27.50;;;;;;2266130;61;20368;-68
2020/12/09 07:33:06;0.00;0.00;0.62;0.00;0.00;0.62;25.83;19.60;;;19.50;27.50;;;;;;2265617;61;20381;-63
2020/12/09 07:35:50;0.00;0.00;0.62;0.00;0.00;0.62;22.00;18.00;;;19.50;27.50;;;;;;2265904;61;20408;-66
2020/12/09 07:38:35;0.00;0.00;0.62;0.00;0.00;0.62;28.77;20.10;;;19.50;27.50;;;;;;2265921;61;20415;-67
2020/12/09 07:41:20;0.00;0.00;0.62;0.00;0.00;0.62;26.90;20.40;;;19.50;27.50;;;;;;2265934;61;20357;-67
2020/12/09 07:44:05;0.00;0.00;0.62;0.00;0.00;0.62;24.70;18.97;;;19.40;27.40;;;;;;2265898;61;20365;-65
2020/12/09 07:46:58;0.00;0.00;0.62;0.00;0.00;0.62;26.37;19.30;;;19.50;27.50;;;;;;2265688;61;20431;-64
2020/12/09 07:49:53;0.00;0.00;0.62;0.00;0.00;0.62;24.50;19.90;;;19.40;27.40;;;;;;2265899;61;20438;-64
2020/12/09 07:52:39;0.00;0.00;0.62;0.00;0.00;0.62;27.47;19.37;;;19.50;27.50;;;;;;2265852;61;20393;-66
2020/12/09 07:55:26;0.00;0.00;0.62;0.00;0.00;0.62;23.63;19.03;;;19.50;27.50;;;;;;2265608;61;20361;-66
2020/12/09 07:58:16;0.00;0.00;0.62;0.00;0.00;0.62;24.77;19.40;;;19.40;27.40;;;;;;2265714;61;20370;-62
2020/12/09 08:01:01;0.00;0.00;0.62;0.00;0.00;0.62;26.50;19.40;;;19.50;27.50;;;;;;2265856;61;20357;-64
2020/12/09 08:03:48;0.00;0.00;0.62;0.00;0.00;0.62;21.00;17.93;;;19.50;27.50;;;;;;2265491;61;20412;-65
2020/12/09 08:06:36;0.00;0.00;0.62;0.00;0.00;0.62;23.13;18.20;;;19.50;27.50;;;;;;2265551;61;20416;-64
2020/12/09 08:09:20;0.00;0.00;0.62;0.00;0.00;0.62;23.30;17.73;;;19.50;27.50;;;;;;2265693;61;20397;-66
2020/12/09 08:12:05;0.00;0.00;0.62;0.00;0.00;0.62;23.97;19.33;;;19.50;27.60;;;;;;2265851;61;20361;-68
2020/12/09 08:14:53;0.00;0.00;0.62;0.00;0.00;0.62;24.97;19.13;;;19.50;27.50;;;;;;2265791;61;20594;-62
2020/12/09 08:17:38;0.00;0.00;0.62;0.00;0.00;0.62;26.80;18.17;;;19.50;27.50;;;;;;2265474;61;20460;-68
2020/12/09 08:20:23;0.00;0.00;0.62;0.00;0.00;0.62;24.60;17.93;;;19.40;27.40;;;;;;2265728;61;20733;-68
2020/12/09 08:23:08;0.00;0.00;0.62;0.00;0.00;0.62;22.60;17.87;;;19.50;27.50;;;;;;2265803;61;20622;-68
2020/12/09 08:25:53;0.00;0.00;0.62;0.00;0.00;0.62;23.47;18.57;;;19.40;27.90;;;;;;2265439;61;20364;-63
2020/12/09 08:28:45;0.00;0.00;0.62;0.00;0.00;0.62;24.73;18.50;;;19.40;27.40;;;;;;2265677;61;20499;-68
2020/12/09 08:31:32;0.00;0.00;0.62;0.00;0.00;0.62;22.93;17.90;;;19.40;27.40;;;;;;2265758;61;20374;-67
2020/12/09 08:34:16;0.00;0.00;0.62;0.00;0.00;0.62;23.43;17.13;;;19.40;27.40;;;;;;2265743;61;20749;-69
2020/12/09 08:37:14;0.00;0.00;0.62;0.00;0.00;0.62;20.70;17.27;;;19.40;27.50;;;;;;2265639;61;20504;-64
2020/12/09 08:39:59;0.00;0.00;0.62;0.00;0.00;0.62;20.17;17.97;;;19.40;27.50;;;;;;2265536;61;20360;-63
2020/12/09 08:42:55;0.00;0.00;0.62;0.00;0.00;0.62;20.60;16.50;;;19.40;27.40;;;;;;2265779;61;20405;-63
2020/12/09 08:45:40;0.00;0.00;0.62;0.00;0.00;0.62;20.63;16.93;;;19.40;27.40;;;;;;2265656;61;20404;-64
2020/12/09 08:48:25;0.00;0.00;0.62;0.00;0.00;0.62;22.00;17.70;;;19.40;27.40;;;;;;2265302;61;20466;-62
2020/12/09 08:51:10;0.00;0.00;0.62;0.00;0.00;0.62;19.90;16.97;;;19.40;27.40;;;;;;2265722;61;20369;-62
2020/12/09 08:53:56;0.00;0.00;0.62;0.00;0.00;0.62;26.53;18.50;;;19.40;27.40;;;;;;2265436;61;20388;-67
2020/12/09 08:56:40;0.00;0.00;0.62;0.00;0.00;0.62;24.20;17.57;;;19.40;27.40;;;;;;2265583;61;20725;-65
2020/12/09 08:59:25;0.00;0.00;0.62;0.00;0.00;0.62;21.97;16.80;;;19.40;27.50;;;;;;2265750;61;20353;-68
2020/12/09 09:02:10;0.00;0.00;0.62;0.00;0.00;0.62;23.40;17.40;;;19.40;27.50;;;;;;2265468;61;20408;-67
2020/12/09 09:04:55;0.00;0.00;0.62;0.00;0.00;0.62;25.10;18.80;;;19.40;27.50;;;;;;2265639;61;20373;-65
2020/12/09 09:07:40;0.00;0.00;0.62;0.00;0.00;0.62;22.97;18.30;;;19.40;28.00;;;;;;2265499;61;20619;-64
2020/12/09 09:10:24;0.00;0.00;0.62;0.00;0.00;0.62;23.67;18.57;;;19.40;27.40;;;;;;2265487;61;20358;-63
2020/12/09 09:13:10;0.00;0.00;0.62;0.00;0.00;0.62;21.87;16.77;;;19.40;27.40;;;;;;2265754;61;20656;-64
2020/12/09 09:15:54;0.00;0.00;0.62;0.00;0.00;0.62;28.90;19.90;;;19.40;27.40;;;;;;2265624;61;20571;-65
2020/12/09 09:18:39;0.00;0.00;0.62;0.00;0.00;0.62;24.07;18.47;;;19.40;27.40;;;;;;2265679;61;20792;-64
2020/12/09 09:21:24;0.00;0.00;0.62;0.00;0.00;0.62;24.17;18.30;;;19.40;27.40;;;;;;2265697;61;20357;-62
2020/12/09 09:24:09;0.00;0.00;0.62;0.00;0.00;0.62;22.53;18.17;;;19.40;27.40;;;;;;2265364;61;20369;-63
2020/12/09 09:26:54;0.00;0.00;0.62;0.00;0.00;0.62;24.53;18.53;;;19.40;27.90;;;;;;2265421;61;20473;-66
2020/12/09 09:29:39;0.00;0.00;0.62;0.00;0.00;0.62;21.93;17.20;;;19.40;27.40;;;;;;2265603;61;20362;-63
2020/12/09 09:32:25;0.00;0.00;0.62;0.00;0.00;0.62;22.80;17.40;;;19.40;27.40;;;;;;2265357;61;20373;-65
2020/12/09 09:35:10;0.00;0.00;0.62;0.00;0.00;0.62;24.00;19.53;;;19.40;27.40;;;;;;2265589;61;20404;-66
2020/12/09 09:37:56;0.00;0.00;0.62;0.00;0.00;0.62;25.90;18.90;;;19.40;27.40;;;;;;2265374;61;20369;-65
2020/12/09 09:40:40;0.00;0.00;0.62;0.00;0.00;0.62;26.80;19.33;;;19.40;27.40;;;;;;2265578;61;20380;-66
2020/12/09 09:43:25;0.00;0.00;0.62;0.00;0.00;0.62;23.57;18.13;;;19.40;27.40;;;;;;2265616;61;20411;-65
2020/12/09 09:46:09;0.00;0.00;0.62;0.00;0.00;0.62;22.27;17.53;;;19.40;27.50;;;;;;2265154;61;20366;-63
2020/12/09 09:48:54;0.00;0.00;0.62;0.00;0.00;0.62;26.50;18.73;;;19.40;27.50;;;;;;2265443;61;20592;-65
2020/12/09 09:51:38;0.00;0.00;0.62;0.00;0.00;0.62;21.73;17.33;;;19.40;27.60;;;;;;2265536;61;20362;-67
2020/12/09 09:54:24;0.00;0.00;0.62;0.00;0.00;0.62;20.00;16.07;;;19.40;27.70;;;;;;2265447;61;20357;-66
2020/12/09 09:57:09;0.00;0.00;0.62;0.00;0.00;0.62;24.20;16.40;;;19.40;27.70;;;;;;2266244;61;20358;-64
2020/12/09 09:59:53;0.00;0.00;0.62;0.00;0.00;0.62;20.13;16.30;;;19.40;27.70;;;;;;2266466;61;20362;-64
2020/12/09 10:02:38;0.00;0.00;0.62;0.00;0.00;0.62;19.00;15.17;;;19.40;27.80;;;;;;2266330;61;20405;-63
2020/12/09 10:05:24;0.00;0.00;0.62;0.00;0.00;0.62;17.70;15.10;;;19.40;27.80;;;;;;2266357;61;20626;-65
2020/12/09 10:08:09;0.00;0.00;0.62;0.00;0.00;0.62;18.80;15.47;;;19.40;27.80;;;;;;2265925;61;20655;-64
2020/12/09 10:10:55;0.00;0.00;0.62;0.00;0.00;0.62;17.40;14.97;;;19.40;27.90;;;;;;2266385;61;20468;-64
2020/12/09 10:13:39;0.00;0.00;0.62;0.00;0.00;0.62;20.77;16.50;;;19.40;27.90;;;;;;2266280;61;20369;-64
2020/12/09 10:16:28;0.00;0.00;0.62;0.00;0.00;0.62;19.90;13.80;;;19.50;28.00;;;;;;2266053;61;20441;-65
2020/12/09 10:19:13;0.00;0.00;0.62;0.00;0.00;0.62;15.77;14.00;;;19.50;28.00;;;;;;2266394;61;20639;-66
2020/12/09 10:22:00;0.00;0.00;0.62;0.00;0.00;0.62;18.30;14.27;;;19.50;28.00;;;;;;2266250;61;20369;-68
2020/12/09 10:24:45;0.00;0.00;0.62;0.00;0.00;0.62;18.60;15.93;;;19.50;28.00;;;;;;2266118;61;20360;-67
2020/12/09 10:27:31;0.00;0.00;0.62;0.00;0.00;0.62;17.13;13.87;;;19.50;28.50;;;;;;2266086;61;20661;-67
2020/12/09 10:30:15;0.00;0.00;0.62;0.00;0.00;0.62;17.60;13.97;;;19.50;28.00;;;;;;2266025;61;20563;-66
2020/12/09 10:33:00;0.00;0.00;0.62;0.00;0.00;0.62;19.10;12.77;;;19.50;28.00;;;;;;2266337;61;20656;-65
2020/12/09 10:35:45;0.00;0.00;0.62;0.00;0.00;0.62;15.70;13.00;;;19.50;28.00;;;;;;2266264;61;20750;-66
2020/12/09 10:38:29;0.00;0.00;0.62;0.00;0.00;0.62;19.23;14.90;;;19.60;28.10;;;;;;2266205;61;20499;-63
2020/12/09 10:41:14;0.00;0.00;0.62;0.00;0.00;0.62;17.03;13.27;;;19.60;28.10;;;;;;2266295;61;20472;-62
2020/12/09 10:44:00;0.00;0.00;0.62;0.00;0.00;0.62;14.90;13.10;;;19.60;28.10;;;;;;2266301;61;20389;-64
2020/12/09 10:46:45;0.00;0.00;0.62;0.00;0.00;0.62;20.07;14.67;;;19.60;28.10;;;;;;2265943;61;20385;-64